sensor_id;sensor_type;location;lat;lon;timestamp;P1;durP1;ratioP1;P2;durP2;ratioP2
69953;SDS011;57276;51.364;12.376;2023-06-14T00:02:55;8.57;;;2.78;;
69953;SDS011;57276;51.364;12.376;2023-06-14T00:08:57;5.33;;;2.30;;
69953;SDS011;57276;51.364;12.376;2023-06-14T00:14:59;5.93;;;2.65;;
69953;SDS011;57276;51.364;12.376;2023-06-14T00:21:02;4.77;;;2.90;;
69953;SDS011;57276;51.364;12.376;2023-06-14T00:27:05;5.50;;;2.78;;
69953;SDS011;57276;51.364;12.376;2023-06-14T00:33:07;5.63;;;3.00;;
69953;SDS011;57276;51.364;12.376;2023-06-14T00:39:08;5.67;;;2.93;;
69953;SDS011;57276;51.364;12.376;2023-06-14T00:45:11;7.85;;;2.97;;
69953;SDS011;57276;51.364;12.376;2023-06-14T00:51:12;5.40;;;3.00;;
69953;SDS011;57276;51.364;12.376;2023-06-14T00:57:14;5.22;;;2.78;;
69953;SDS011;57276;51.364;12.376;2023-06-14T01:03:15;5.20;;;2.75;;
69953;SDS011;57276;51.364;12.376;2023-06-14T01:09:48;5.67;;;2.90;;
69953;SDS011;57276;51.364;12.376;2023-06-14T01:15:53;4.93;;;2.80;;
69953;SDS011;57276;51.364;12.376;2023-06-14T01:21:56;4.70;;;2.90;;
69953;SDS011;57276;51.364;12.376;2023-06-14T01:28:02;4.75;;;2.60;;
69953;SDS011;57276;51.364;12.376;2023-06-14T01:34:04;6.13;;;2.60;;
69953;SDS011;57276;51.364;12.376;2023-06-14T01:40:05;6.00;;;2.90;;
69953;SDS011;57276;51.364;12.376;2023-06-14T01:46:09;6.32;;;3.10;;
69953;SDS011;57276;51.364;12.376;2023-06-14T01:52:11;6.20;;;3.10;;
69953;SDS011;57276;51.364;12.376;2023-06-14T01:58:12;5.53;;;3.00;;
69953;SDS011;57276;51.364;12.376;2023-06-14T02:04:14;5.32;;;3.20;;
69953;SDS011;57276;51.364;12.376;2023-06-14T02:10:16;6.47;;;2.70;;
69953;SDS011;57276;51.364;12.376;2023-06-14T02:16:19;5.40;;;2.70;;
69953;SDS011;57276;51.364;12.376;2023-06-14T02:22:22;8.33;;;2.70;;
69953;SDS011;57276;51.364;12.376;2023-06-14T02:28:23;4.20;;;2.53;;
69953;SDS011;57276;51.364;12.376;2023-06-14T02:34:25;5.90;;;2.75;;
69953;SDS011;57276;51.364;12.376;2023-06-14T02:40:28;6.37;;;2.30;;
69953;SDS011;57276;51.364;12.376;2023-06-14T02:46:31;5.65;;;2.90;;
69953;SDS011;57276;51.364;12.376;2023-06-14T02:52:33;5.17;;;2.43;;
69953;SDS011;57276;51.364;12.376;2023-06-14T02:58:36;4.53;;;2.33;;
69953;SDS011;57276;51.364;12.376;2023-06-14T03:04:38;5.00;;;2.50;;
69953;SDS011;57276;51.364;12.376;2023-06-14T03:10:46;7.13;;;2.50;;
69953;SDS011;57276;51.364;12.376;2023-06-14T03:16:48;4.80;;;2.47;;
69953;SDS011;57276;51.364;12.376;2023-06-14T03:22:53;4.77;;;2.60;;
69953;SDS011;57276;51.364;12.376;2023-06-14T03:28:56;4.97;;;2.60;;
69953;SDS011;57276;51.364;12.376;2023-06-14T03:34:58;4.50;;;2.65;;
69953;SDS011;57276;51.364;12.376;2023-06-14T03:41:02;4.10;;;2.30;;
69953;SDS011;57276;51.364;12.376;2023-06-14T03:47:03;5.38;;;2.70;;
69953;SDS011;57276;51.364;12.376;2023-06-14T03:53:05;5.90;;;2.60;;
69953;SDS011;57276;51.364;12.376;2023-06-14T03:59:09;6.00;;;2.42;;
69953;SDS011;57276;51.364;12.376;2023-06-14T04:05:12;6.28;;;2.80;;
69953;SDS011;57276;51.364;12.376;2023-06-14T04:11:20;5.20;;;2.70;;
69953;SDS011;57276;51.364;12.376;2023-06-14T04:17:21;6.28;;;2.80;;
69953;SDS011;57276;51.364;12.376;2023-06-14T04:23:23;5.57;;;2.80;;
69953;SDS011;57276;51.364;12.376;2023-06-14T04:29:27;5.05;;;2.92;;
69953;SDS011;57276;51.364;12.376;2023-06-14T04:35:35;5.40;;;2.47;;
69953;SDS011;57276;51.364;12.376;2023-06-14T04:41:40;5.37;;;3.07;;
69953;SDS011;57276;51.364;12.376;2023-06-14T04:47:42;5.50;;;3.08;;
69953;SDS011;57276;51.364;12.376;2023-06-14T04:53:45;5.27;;;3.10;;
69953;SDS011;57276;51.364;12.376;2023-06-14T04:59:47;5.68;;;3.28;;
69953;SDS011;57276;51.364;12.376;2023-06-14T05:05:49;5.03;;;3.00;;
69953;SDS011;57276;51.364;12.376;2023-06-14T05:11:51;5.77;;;3.50;;
69953;SDS011;57276;51.364;12.376;2023-06-14T05:17:55;6.00;;;3.72;;
69953;SDS011;57276;51.364;12.376;2023-06-14T05:23:57;5.90;;;3.50;;
69953;SDS011;57276;51.364;12.376;2023-06-14T05:29:59;7.00;;;3.45;;
69953;SDS011;57276;51.364;12.376;2023-06-14T05:36:01;6.43;;;3.92;;
69953;SDS011;57276;51.364;12.376;2023-06-14T05:42:03;6.37;;;4.03;;
69953;SDS011;57276;51.364;12.376;2023-06-14T05:48:07;6.43;;;4.13;;
69953;SDS011;57276;51.364;12.376;2023-06-14T05:54:09;7.83;;;4.60;;
69953;SDS011;57276;51.364;12.376;2023-06-14T06:00:11;6.97;;;4.63;;
69953;SDS011;57276;51.364;12.376;2023-06-14T06:06:16;7.50;;;4.30;;
69953;SDS011;57276;51.364;12.376;2023-06-14T06:12:17;7.53;;;4.57;;
69953;SDS011;57276;51.364;12.376;2023-06-14T06:18:19;7.35;;;4.50;;
69953;SDS011;57276;51.364;12.376;2023-06-14T06:24:20;8.47;;;4.53;;
69953;SDS011;57276;51.364;12.376;2023-06-14T06:30:22;7.75;;;4.43;;
69953;SDS011;57276;51.364;12.376;2023-06-14T06:36:24;7.10;;;4.35;;
69953;SDS011;57276;51.364;12.376;2023-06-14T06:42:25;7.40;;;4.73;;
69953;SDS011;57276;51.364;12.376;2023-06-14T06:48:30;7.05;;;4.95;;
69953;SDS011;57276;51.364;12.376;2023-06-14T06:54:32;6.90;;;4.33;;
69953;SDS011;57276;51.364;12.376;2023-06-14T07:00:34;7.90;;;4.70;;
69953;SDS011;57276;51.364;12.376;2023-06-14T07:06:36;8.13;;;3.95;;
69953;SDS011;57276;51.364;12.376;2023-06-14T07:12:37;7.60;;;4.23;;
69953;SDS011;57276;51.364;12.376;2023-06-14T07:18:41;6.63;;;4.07;;
69953;SDS011;57276;51.364;12.376;2023-06-14T07:24:43;7.57;;;4.10;;
69953;SDS011;57276;51.364;12.376;2023-06-14T07:30:44;5.93;;;3.70;;
69953;SDS011;57276;51.364;12.376;2023-06-14T07:36:47;5.28;;;3.60;;
69953;SDS011;57276;51.364;12.376;2023-06-14T07:42:48;5.90;;;3.63;;
69953;SDS011;57276;51.364;12.376;2023-06-14T07:48:52;8.63;;;4.07;;
69953;SDS011;57276;51.364;12.376;2023-06-14T07:54:54;6.13;;;4.00;;
69953;SDS011;57276;51.364;12.376;2023-06-14T08:00:56;6.78;;;3.83;;
69953;SDS011;57276;51.364;12.376;2023-06-14T08:06:58;6.38;;;4.32;;
69953;SDS011;57276;51.364;12.376;2023-06-14T08:13:00;5.43;;;3.70;;
69953;SDS011;57276;51.364;12.376;2023-06-14T08:19:01;8.77;;;4.07;;
69953;SDS011;57276;51.364;12.376;2023-06-14T08:25:05;9.93;;;3.90;;
69953;SDS011;57276;51.364;12.376;2023-06-14T08:31:08;9.27;;;3.75;;
69953;SDS011;57276;51.364;12.376;2023-06-14T08:37:09;9.20;;;4.03;;
69953;SDS011;57276;51.364;12.376;2023-06-14T08:43:12;6.83;;;3.57;;
69953;SDS011;57276;51.364;12.376;2023-06-14T08:49:14;7.45;;;4.50;;
69953;SDS011;57276;51.364;12.376;2023-06-14T08:55:17;7.17;;;4.63;;
69953;SDS011;57276;51.364;12.376;2023-06-14T09:01:19;7.47;;;3.80;;
69953;SDS011;57276;51.364;12.376;2023-06-14T09:07:23;6.05;;;3.78;;
69953;SDS011;57276;51.364;12.376;2023-06-14T09:13:27;5.77;;;3.50;;
69953;SDS011;57276;51.364;12.376;2023-06-14T09:19:33;5.18;;;3.88;;
69953;SDS011;57276;51.364;12.376;2023-06-14T09:25:41;7.67;;;3.83;;
69953;SDS011;57276;51.364;12.376;2023-06-14T09:31:45;6.57;;;3.38;;
69953;SDS011;57276;51.364;12.376;2023-06-14T09:37:47;5.60;;;3.15;;
69953;SDS011;57276;51.364;12.376;2023-06-14T09:43:48;5.87;;;3.47;;
69953;SDS011;57276;51.364;12.376;2023-06-14T09:49:51;6.20;;;3.22;;
69953;SDS011;57276;51.364;12.376;2023-06-14T09:55:57;7.20;;;3.23;;
69953;SDS011;57276;51.364;12.376;2023-06-14T10:02:03;6.38;;;3.10;;
69953;SDS011;57276;51.364;12.376;2023-06-14T10:08:11;5.85;;;3.35;;
69953;SDS011;57276;51.364;12.376;2023-06-14T10:14:14;5.30;;;3.17;;
69953;SDS011;57276;51.364;12.376;2023-06-14T10:26:22;6.43;;;3.50;;
69953;SDS011;57276;51.364;12.376;2023-06-14T10:32:24;4.85;;;2.72;;
69953;SDS011;57276;51.364;12.376;2023-06-14T10:38:29;3.95;;;2.45;;
69953;SDS011;57276;51.364;12.376;2023-06-14T10:44:50;5.27;;;2.80;;
69953;SDS011;57276;51.364;12.376;2023-06-14T10:51:00;5.10;;;2.75;;
69953;SDS011;57276;51.364;12.376;2023-06-14T10:57:03;4.93;;;2.97;;
69953;SDS011;57276;51.364;12.376;2023-06-14T11:09:35;4.65;;;2.92;;
69953;SDS011;57276;51.364;12.376;2023-06-14T11:15:44;5.43;;;3.10;;
69953;SDS011;57276;51.364;12.376;2023-06-14T11:21:47;5.03;;;2.88;;
69953;SDS011;57276;51.364;12.376;2023-06-14T11:27:49;6.20;;;2.90;;
69953;SDS011;57276;51.364;12.376;2023-06-14T11:33:53;5.15;;;2.83;;
69953;SDS011;57276;51.364;12.376;2023-06-14T11:39:57;4.60;;;2.50;;
69953;SDS011;57276;51.364;12.376;2023-06-14T11:45:59;4.33;;;2.70;;
69953;SDS011;57276;51.364;12.376;2023-06-14T11:52:08;4.07;;;2.70;;
69953;SDS011;57276;51.364;12.376;2023-06-14T11:58:10;4.60;;;2.83;;
69953;SDS011;57276;51.364;12.376;2023-06-14T12:04:12;5.20;;;3.00;;
69953;SDS011;57276;51.364;12.376;2023-06-14T12:10:13;4.53;;;2.80;;
69953;SDS011;57276;51.364;12.376;2023-06-14T12:16:17;6.50;;;3.10;;
69953;SDS011;57276;51.364;12.376;2023-06-14T12:22:18;4.30;;;3.17;;
69953;SDS011;57276;51.364;12.376;2023-06-14T12:28:20;4.53;;;3.27;;
69953;SDS011;57276;51.364;12.376;2023-06-14T12:34:28;4.93;;;3.10;;
69953;SDS011;57276;51.364;12.376;2023-06-14T12:40:30;5.55;;;2.85;;
69953;SDS011;57276;51.364;12.376;2023-06-14T12:46:31;7.73;;;3.40;;
69953;SDS011;57276;51.364;12.376;2023-06-14T12:52:33;6.88;;;3.35;;
69953;SDS011;57276;51.364;12.376;2023-06-14T12:58:37;9.23;;;3.70;;
69953;SDS011;57276;51.364;12.376;2023-06-14T13:04:39;6.28;;;3.10;;
69953;SDS011;57276;51.364;12.376;2023-06-14T13:10:40;7.20;;;3.47;;
69953;SDS011;57276;51.364;12.376;2023-06-14T13:16:42;5.50;;;3.60;;
69953;SDS011;57276;51.364;12.376;2023-06-14T13:22:44;7.82;;;3.92;;
69953;SDS011;57276;51.364;12.376;2023-06-14T13:28:45;9.03;;;3.70;;
69953;SDS011;57276;51.364;12.376;2023-06-14T13:34:47;5.65;;;3.85;;
69953;SDS011;57276;51.364;12.376;2023-06-14T13:40:48;5.40;;;3.20;;
69953;SDS011;57276;51.364;12.376;2023-06-14T13:46:50;8.17;;;3.70;;
69953;SDS011;57276;51.364;12.376;2023-06-14T13:52:51;7.88;;;3.97;;
69953;SDS011;57276;51.364;12.376;2023-06-14T13:58:53;6.10;;;4.00;;
69953;SDS011;57276;51.364;12.376;2023-06-14T14:04:55;6.07;;;3.70;;
69953;SDS011;57276;51.364;12.376;2023-06-14T14:10:58;7.13;;;3.85;;
69953;SDS011;57276;51.364;12.376;2023-06-14T14:16:59;5.83;;;3.53;;
69953;SDS011;57276;51.364;12.376;2023-06-14T14:23:01;4.80;;;3.75;;
69953;SDS011;57276;51.364;12.376;2023-06-14T14:29:03;6.97;;;3.97;;
69953;SDS011;57276;51.364;12.376;2023-06-14T14:35:05;5.35;;;3.90;;
69953;SDS011;57276;51.364;12.376;2023-06-14T14:41:07;5.10;;;3.78;;
69953;SDS011;57276;51.364;12.376;2023-06-14T14:47:09;5.73;;;3.53;;
69953;SDS011;57276;51.364;12.376;2023-06-14T14:53:10;4.30;;;3.10;;
69953;SDS011;57276;51.364;12.376;2023-06-14T14:59:12;5.57;;;3.27;;
69953;SDS011;57276;51.364;12.376;2023-06-14T15:05:13;6.55;;;3.20;;
69953;SDS011;57276;51.364;12.376;2023-06-14T15:11:15;5.72;;;3.22;;
69953;SDS011;57276;51.364;12.376;2023-06-14T15:17:16;4.93;;;3.20;;
69953;SDS011;57276;51.364;12.376;2023-06-14T15:23:19;5.63;;;3.30;;
69953;SDS011;57276;51.364;12.376;2023-06-14T15:29:21;4.33;;;3.10;;
69953;SDS011;57276;51.364;12.376;2023-06-14T15:35:23;10.45;;;3.30;;
69953;SDS011;57276;51.364;12.376;2023-06-14T15:41:24;5.65;;;3.25;;
69953;SDS011;57276;51.364;12.376;2023-06-14T15:47:26;4.10;;;2.80;;
69953;SDS011;57276;51.364;12.376;2023-06-14T15:53:27;6.10;;;3.55;;
69953;SDS011;57276;51.364;12.376;2023-06-14T15:59:29;5.20;;;3.10;;
69953;SDS011;57276;51.364;12.376;2023-06-14T16:05:30;5.63;;;3.58;;
69953;SDS011;57276;51.364;12.376;2023-06-14T16:11:32;5.25;;;3.42;;
69953;SDS011;57276;51.364;12.376;2023-06-14T16:17:34;6.73;;;3.47;;
69953;SDS011;57276;51.364;12.376;2023-06-14T16:23:35;6.03;;;3.80;;
69953;SDS011;57276;51.364;12.376;2023-06-14T16:29:37;6.50;;;3.90;;
69953;SDS011;57276;51.364;12.376;2023-06-14T16:35:38;4.60;;;3.40;;
69953;SDS011;57276;51.364;12.376;2023-06-14T16:41:41;7.68;;;4.00;;
69953;SDS011;57276;51.364;12.376;2023-06-14T16:47:42;6.97;;;3.80;;
69953;SDS011;57276;51.364;12.376;2023-06-14T16:53:44;6.63;;;4.05;;
69953;SDS011;57276;51.364;12.376;2023-06-14T16:59:46;6.30;;;3.90;;
69953;SDS011;57276;51.364;12.376;2023-06-14T17:05:57;7.20;;;3.70;;
69953;SDS011;57276;51.364;12.376;2023-06-14T17:11:59;6.72;;;3.55;;
69953;SDS011;57276;51.364;12.376;2023-06-14T17:18:02;6.97;;;3.50;;
69953;SDS011;57276;51.364;12.376;2023-06-14T17:24:04;5.50;;;3.65;;
69953;SDS011;57276;51.364;12.376;2023-06-14T17:30:25;7.23;;;3.60;;
69953;SDS011;57276;51.364;12.376;2023-06-14T17:36:27;4.65;;;3.45;;
69953;SDS011;57276;51.364;12.376;2023-06-14T17:42:29;6.15;;;3.50;;
69953;SDS011;57276;51.364;12.376;2023-06-14T17:48:31;6.23;;;3.50;;
69953;SDS011;57276;51.364;12.376;2023-06-14T17:54:39;5.57;;;3.40;;
69953;SDS011;57276;51.364;12.376;2023-06-14T18:00:41;5.20;;;3.30;;
69953;SDS011;57276;51.364;12.376;2023-06-14T18:06:43;5.30;;;3.00;;
69953;SDS011;57276;51.364;12.376;2023-06-14T18:12:44;5.57;;;3.40;;
69953;SDS011;57276;51.364;12.376;2023-06-14T18:18:46;5.17;;;3.20;;
69953;SDS011;57276;51.364;12.376;2023-06-14T18:24:48;5.15;;;3.30;;
69953;SDS011;57276;51.364;12.376;2023-06-14T18:30:50;4.90;;;3.50;;
69953;SDS011;57276;51.364;12.376;2023-06-14T18:36:51;6.28;;;3.13;;
69953;SDS011;57276;51.364;12.376;2023-06-14T18:42:58;5.38;;;3.30;;
69953;SDS011;57276;51.364;12.376;2023-06-14T18:49:02;5.00;;;3.10;;
69953;SDS011;57276;51.364;12.376;2023-06-14T18:55:05;6.63;;;3.53;;
69953;SDS011;57276;51.364;12.376;2023-06-14T19:01:07;8.47;;;3.33;;
69953;SDS011;57276;51.364;12.376;2023-06-14T19:07:08;4.50;;;3.10;;
69953;SDS011;57276;51.364;12.376;2023-06-14T19:13:10;5.30;;;3.42;;
69953;SDS011;57276;51.364;12.376;2023-06-14T19:19:12;6.10;;;3.40;;
69953;SDS011;57276;51.364;12.376;2023-06-14T19:25:14;6.22;;;3.45;;
69953;SDS011;57276;51.364;12.376;2023-06-14T19:31:17;6.63;;;3.80;;
69953;SDS011;57276;51.364;12.376;2023-06-14T19:37:19;6.32;;;3.95;;
69953;SDS011;57276;51.364;12.376;2023-06-14T19:43:21;6.03;;;3.72;;
69953;SDS011;57276;51.364;12.376;2023-06-14T19:49:22;5.90;;;3.70;;
69953;SDS011;57276;51.364;12.376;2023-06-14T19:55:25;6.00;;;3.75;;
69953;SDS011;57276;51.364;12.376;2023-06-14T20:01:27;6.77;;;4.00;;
69953;SDS011;57276;51.364;12.376;2023-06-14T20:07:28;6.18;;;4.10;;
69953;SDS011;57276;51.364;12.376;2023-06-14T20:13:30;8.20;;;4.40;;
69953;SDS011;57276;51.364;12.376;2023-06-14T20:19:32;8.73;;;5.13;;
69953;SDS011;57276;51.364;12.376;2023-06-14T20:25:34;7.93;;;4.90;;
69953;SDS011;57276;51.364;12.376;2023-06-14T20:31:36;9.00;;;4.90;;
69953;SDS011;57276;51.364;12.376;2023-06-14T20:37:37;8.93;;;4.75;;
69953;SDS011;57276;51.364;12.376;2023-06-14T20:43:39;9.13;;;4.38;;
69953;SDS011;57276;51.364;12.376;2023-06-14T20:49:41;7.03;;;4.50;;
69953;SDS011;57276;51.364;12.376;2023-06-14T20:55:43;7.57;;;4.40;;
69953;SDS011;57276;51.364;12.376;2023-06-14T21:01:44;7.27;;;4.80;;
69953;SDS011;57276;51.364;12.376;2023-06-14T21:07:46;7.40;;;4.43;;
69953;SDS011;57276;51.364;12.376;2023-06-14T21:13:48;7.45;;;4.03;;
69953;SDS011;57276;51.364;12.376;2023-06-14T21:19:49;7.50;;;4.50;;
69953;SDS011;57276;51.364;12.376;2023-06-14T21:25:51;7.15;;;4.40;;
69953;SDS011;57276;51.364;12.376;2023-06-14T21:31:53;6.97;;;4.10;;
69953;SDS011;57276;51.364;12.376;2023-06-14T21:37:54;9.32;;;4.70;;
69953;SDS011;57276;51.364;12.376;2023-06-14T21:43:56;7.30;;;4.70;;
69953;SDS011;57276;51.364;12.376;2023-06-14T21:49:57;8.87;;;4.77;;
69953;SDS011;57276;51.364;12.376;2023-06-14T21:55:59;9.50;;;5.00;;
69953;SDS011;57276;51.364;12.376;2023-06-14T22:02:01;7.50;;;4.50;;
69953;SDS011;57276;51.364;12.376;2023-06-14T22:08:02;7.93;;;4.45;;
69953;SDS011;57276;51.364;12.376;2023-06-14T22:14:04;8.32;;;4.60;;
69953;SDS011;57276;51.364;12.376;2023-06-14T22:20:06;7.83;;;4.63;;
69953;SDS011;57276;51.364;12.376;2023-06-14T22:26:11;8.73;;;4.72;;
69953;SDS011;57276;51.364;12.376;2023-06-14T22:32:18;6.60;;;4.70;;
69953;SDS011;57276;51.364;12.376;2023-06-14T22:38:21;7.82;;;4.70;;
69953;SDS011;57276;51.364;12.376;2023-06-14T22:44:24;8.40;;;4.40;;
69953;SDS011;57276;51.364;12.376;2023-06-14T22:50:25;12.90;;;5.70;;
69953;SDS011;57276;51.364;12.376;2023-06-14T22:56:27;17.90;;;8.77;;
69953;SDS011;57276;51.364;12.376;2023-06-14T23:02:29;7.30;;;4.50;;
69953;SDS011;57276;51.364;12.376;2023-06-14T23:08:31;8.18;;;4.20;;
69953;SDS011;57276;51.364;12.376;2023-06-14T23:14:34;9.85;;;4.95;;
69953;SDS011;57276;51.364;12.376;2023-06-14T23:20:38;9.27;;;4.73;;
69953;SDS011;57276;51.364;12.376;2023-06-14T23:26:40;6.95;;;4.53;;
69953;SDS011;57276;51.364;12.376;2023-06-14T23:32:44;8.83;;;4.50;;
69953;SDS011;57276;51.364;12.376;2023-06-14T23:38:48;7.10;;;4.20;;
69953;SDS011;57276;51.364;12.376;2023-06-14T23:44:50;9.50;;;4.20;;
69953;SDS011;57276;51.364;12.376;2023-06-14T23:50:53;7.20;;;4.57;;
69953;SDS011;57276;51.364;12.376;2023-06-14T23:56:55;8.15;;;4.25;;
